Ana Sayfa
METAR-TAF:

METAR-TAF

Havaalanları :

Lanzhou, Çin

Enlem: 36-02N, Boylam: 103-52E, yükseklik: 1518 m

Güncel hava durumu gözlemi

Rapor saat 15:00 UTC de 1 saat ve 12 dakika önce yapıldı.
Rüzgar değişken yönden 2 kt
Sıcaklık 21°C
Nem 56%
Basınç 1014 hPa
Görüş mesafesi 10 km veya daha fazla
1500 m altında bulut yok ve kümülonimbus yok

METAR: ZLLL 241500Z VRB01MPS CAVOK 21/12 Q1014 NOSIG

Saat: 00:12 (16:12 UTC)

Tahmin

Rapor saat 09:08 UTC de 7 saat ve 4 dakika önce yapıldı.
Ayın 24'si saat 12 UTC'den ayın 25'si saat 12 UTC'ye kadar geçerli Tahmin
Rüzgar kuzeydan 6 kt
Görüş mesafesi: 6000 m
Geçici
ayın 25'si saat 08 UTC'den ayın 25'si saat 12 UTC'ye kadar
2300 ft yükseklikte parçalı bulutlu
3300 ft yükseklikte az bulutlu, Kümülonimbus.

TAF: ZLLL 240908Z 2412/2512 35003MPS 6000 NSC TX31/2508Z TN15/2422Z TEMPO 2508/2512 SCT023 FEW033CB

4.000'den fazla havaalanı için hava durumu gözlemleri ve tahminleri (METAR ve TAF raporları).

Kullanılabilir istasyonlar harita üzerinde sarı ve kırmızı noktalarla gösterilir.

İstasyonun adını görmek için fareyi noktanın üzerinde gezdirin.

Sonrasında hava gözlem ve tahminlerini görmek için tıklayın.

Haritayı değiştirmek için: yaklaştırmak için siyah artı işaretli yeşil düğmeye ve uzaklaştırmak için de eksi işaretli düğmeye hızla tıklayın; bitişik haritalar için yeşil okları kullanın.


METAR-TAF: